首页
METAR-TAF:

METAR-TAF

机场 :

帕尔杜比采, 捷克共和国

纬度: 50-00-48N, 经度: 15-44-19E, 海拔: 226米

当前天气观测

该预报发布于35分钟前的01:00 UTC
风速1节,风向东转东北
温度 9°C
湿度 93%
气压 1013 hPa
能见度10公里或以上
1500米以下无云,无积雨云

METAR: LKPD 250100Z 06001KT CAVOK 09/08 Q1013 RMK BLU

时间: 03:35 (01:35 UTC)

预报

该预报发布于2小时和35分钟前的23:00 UTC
预报有效从25日的 00点(UTC)到 26日的 00点(UTC)
风速4节,风向西北
能见度10公里或以上
1500米以下无云,无积雨云
短暂存在
从 25日的 12点(UTC)到 25日的 18点(UTC)
风速8节,风向西转西北
能見度: 7000
散云层高于4000英尺, 塔状积云.
阵雨

TAF: LKPD 242300Z 2500/2600 32004KT CAVOK TEMPO 2512/2518 30008KT 7000 SHRA SCT040TCU

超过4000个机场的气象观测和天气预报(METAR&TAF报告)。

可查询的气象台以黄色和红色小点在地图上表示。

将鼠标移到小点上方,可查看气象台名称。

然后点击查看天气观测和预报。

如需切换地图:点击带黑十字的绿色按钮放大地图;点击带横线的绿色按钮缩小地图;或者点击绿色箭头查看邻近地区的地图。


METAR-TAF: